createdAt,value
2022-09-24T00:04:33.367Z,101210.34
2022-09-24T00:09:34.856Z,101206.72
2022-09-24T00:14:36.345Z,101213.09
2022-09-24T00:19:38.003Z,101201.41
2022-09-24T00:24:58.177Z,101203.97
2022-09-24T00:29:59.631Z,101211.00
2022-09-24T00:35:01.148Z,101196.22
2022-09-24T00:40:02.691Z,101193.28
2022-09-24T00:45:05.272Z,101199.47
2022-09-24T00:50:15.471Z,101188.47
2022-09-24T00:55:19.848Z,101193.97
2022-09-24T01:00:22.274Z,101199.25
2022-09-24T01:05:23.747Z,101182.50
2022-09-24T01:10:51.115Z,101189.53
2022-09-24T01:16:04.120Z,101187.44
2022-09-24T01:21:25.675Z,101163.25
2022-09-24T01:26:45.521Z,101173.50
2022-09-24T01:32:13.039Z,101169.25
2022-09-24T01:37:18.246Z,101157.22
2022-09-24T01:42:22.037Z,101156.84
2022-09-24T01:47:34.674Z,101154.94
2022-09-24T01:52:52.347Z,101151.53
2022-09-24T01:58:02.914Z,101148.13
2022-09-24T02:03:10.375Z,101150.22
2022-09-24T02:08:22.231Z,101144.72
2022-09-24T02:13:27.612Z,101139.59
2022-09-24T02:18:34.718Z,101134.09
2022-09-24T02:23:40.932Z,101134.09
2022-09-24T02:28:42.542Z,101126.50
2022-09-24T02:34:07.523Z,101128.25
2022-09-24T02:39:09.272Z,101118.84
2022-09-24T02:44:10.744Z,101122.47
2022-09-24T02:49:13.275Z,101116.09
2022-09-24T02:54:14.846Z,101115.06
2022-09-24T02:59:16.488Z,101120.72
2022-09-24T03:04:17.987Z,101114.66
2022-09-24T03:09:19.466Z,101115.06
2022-09-24T03:14:20.951Z,101120.53
2022-09-24T03:19:22.455Z,101121.41
2022-09-24T03:24:23.972Z,101127.06
2022-09-24T03:29:44.251Z,101121.09
2022-09-24T03:34:45.846Z,101124.41
2022-09-24T03:39:47.307Z,101112.84
2022-09-24T03:44:48.798Z,101126.25
2022-09-24T03:49:50.271Z,101125.38
2022-09-24T03:54:51.943Z,101119.22
2022-09-24T03:59:54.158Z,101121.13
2022-09-24T04:04:55.669Z,101122.34
2022-09-24T04:09:57.141Z,101125.94
2022-09-24T04:14:58.616Z,101130.41
2022-09-24T04:20:03.707Z,101130.88
2022-09-24T04:25:05.646Z,101129.84
2022-09-24T04:30:08.118Z,101136.84
2022-09-24T04:35:10.100Z,101135.63
2022-09-24T04:40:12.640Z,101133.91
2022-09-24T04:45:20.039Z,101136.09
2022-09-24T04:50:21.768Z,101145.78
2022-09-24T04:55:24.059Z,101148.31
2022-09-24T05:00:25.907Z,101148.69
2022-09-24T05:05:28.021Z,101155.09
2022-09-24T05:10:31.619Z,101150.53
2022-09-24T05:15:33.246Z,101153.16
2022-09-24T05:20:34.774Z,101155.59
2022-09-24T05:25:56.362Z,101159.03
2022-09-24T05:30:58.553Z,101162.34
2022-09-24T05:36:00.104Z,101167.16
2022-09-24T05:41:03.277Z,101155.19
2022-09-24T05:46:04.936Z,101164.97
2022-09-24T05:51:06.916Z,101172.50
2022-09-24T05:56:10.316Z,101163.25
2022-09-24T06:01:11.772Z,101173.19
2022-09-24T06:06:13.586Z,101174.88
2022-09-24T06:11:15.086Z,101181.06
2022-09-24T06:16:17.091Z,101186.38
2022-09-24T06:21:18.627Z,101194.59
2022-09-24T06:26:20.264Z,101195.44
2022-09-24T06:31:21.913Z,101204.38
2022-09-24T06:36:23.513Z,101208.97
2022-09-24T06:41:25.085Z,101221.84
2022-09-24T06:46:26.818Z,101228.66
2022-09-24T06:51:28.442Z,101227.16
2022-09-24T06:56:31.063Z,101235.19
2022-09-24T07:01:32.831Z,101237.94
2022-09-24T07:06:54.667Z,101249.09
2022-09-24T07:11:58.573Z,101248.41
2022-09-24T07:17:00.303Z,101247.38
2022-09-24T07:22:01.867Z,101256.50
2022-09-24T07:27:06.662Z,101259.69
2022-09-24T07:32:08.363Z,101269.81
2022-09-24T07:37:09.916Z,101277.72
2022-09-24T07:42:11.550Z,101268.97
2022-09-24T07:47:15.671Z,101285.41
2022-09-24T07:52:17.350Z,101284.34
2022-09-24T07:57:18.888Z,101286.75
2022-09-24T08:02:20.465Z,101291.72
2022-09-24T08:07:22.093Z,101291.31
2022-09-24T08:12:27.678Z,101294.75
2022-09-24T08:17:29.299Z,101289.22
2022-09-24T08:22:31.462Z,101294.66
2022-09-24T08:27:34.415Z,101302.34
2022-09-24T08:32:36.003Z,101296.31
2022-09-24T08:37:38.422Z,101305.91
2022-09-24T08:42:56.191Z,101308.97
2022-09-24T08:47:59.901Z,101320.75
2022-09-24T08:53:07.193Z,101326.34
2022-09-24T08:58:17.496Z,101326.97
2022-09-24T09:03:47.651Z,101329.09
2022-09-24T09:09:16.626Z,101334.34
2022-09-24T09:14:42.217Z,101330.66
2022-09-24T09:19:54.027Z,101348.00
2022-09-24T09:25:04.368Z,101342.22
2022-09-24T09:30:14.558Z,101341.00
2022-09-24T09:35:22.002Z,101356.41
2022-09-24T09:40:32.495Z,101366.31
2022-09-24T09:45:55.533Z,101363.00
2022-09-24T09:51:05.094Z,101372.88
2022-09-24T09:56:08.253Z,101357.13
2022-09-24T10:01:15.736Z,101359.75
2022-09-24T10:06:24.864Z,101363.72
2022-09-24T10:11:26.407Z,101364.69
2022-09-24T10:16:28.044Z,101360.50
2022-09-24T10:21:36.406Z,101369.91
2022-09-24T10:26:45.508Z,101373.88
2022-09-24T10:31:48.987Z,101368.19
2022-09-24T10:36:59.525Z,101368.84
2022-09-24T10:42:01.185Z,101370.06
2022-09-24T10:47:25.455Z,101371.22
2022-09-24T10:52:54.395Z,101369.22
2022-09-24T10:58:03.031Z,101365.72
2022-09-24T11:03:58.234Z,101359.38
2022-09-24T11:09:05.512Z,101374.91
2022-09-24T11:14:12.881Z,101391.09
2022-09-24T11:19:48.057Z,101379.66
2022-09-24T11:25:15.721Z,101382.88
2022-09-24T11:30:24.922Z,101384.41
2022-09-24T11:35:56.578Z,101392.38
2022-09-24T11:41:11.857Z,101388.63
2022-09-24T11:46:22.659Z,101396.16
2022-09-24T11:51:26.962Z,101390.97
2022-09-24T11:56:41.184Z,101393.94
2022-09-24T12:01:50.712Z,101393.94
2022-09-24T12:07:00.277Z,101400.47
2022-09-24T12:12:08.936Z,101396.97
2022-09-24T12:17:18.463Z,101397.06
2022-09-24T12:22:21.957Z,101400.88
2022-09-24T12:27:33.691Z,101390.06
2022-09-24T12:32:53.529Z,101393.03
2022-09-24T12:38:06.237Z,101390.28
2022-09-24T12:43:25.352Z,101397.28
2022-09-24T12:48:28.852Z,101393.47
2022-09-24T12:53:43.306Z,101390.91
2022-09-24T12:58:45.215Z,101398.97
2022-09-24T13:03:47.546Z,101396.22
2022-09-24T13:08:50.512Z,101403.19
2022-09-24T13:14:00.744Z,101409.63
2022-09-24T13:19:03.645Z,101410.41
2022-09-24T13:24:11.928Z,101393.28
2022-09-24T13:29:26.514Z,101404.44
2022-09-24T13:34:30.222Z,101409.31
2022-09-24T13:39:44.223Z,101407.78
2022-09-24T13:44:54.379Z,101409.88
2022-09-24T13:50:20.928Z,101411.59
2022-09-24T13:55:31.223Z,101417.28
2022-09-24T14:00:37.595Z,101409.78
2022-09-24T14:05:39.337Z,101417.16
2022-09-24T14:10:41.847Z,101421.13
2022-09-24T14:16:10.373Z,101412.09
2022-09-24T14:21:17.763Z,101420.78
2022-09-24T14:26:24.722Z,101418.59
2022-09-24T14:31:27.006Z,101422.97
2022-09-24T14:36:29.303Z,101421.09
2022-09-24T14:41:36.348Z,101417.19
2022-09-24T14:46:48.780Z,101432.75
2022-09-24T14:51:54.956Z,101435.31
2022-09-24T14:56:56.865Z,101444.63
2022-09-24T15:02:17.375Z,101440.75
2022-09-24T15:07:24.077Z,101445.09
2022-09-24T15:12:32.434Z,101444.59
2022-09-24T15:17:36.177Z,101447.28
2022-09-24T15:22:38.039Z,101426.88
2022-09-24T15:27:40.407Z,101436.69
2022-09-24T15:32:42.077Z,101427.50
2022-09-24T15:37:44.761Z,101436.31
2022-09-24T15:42:46.374Z,101432.91
2022-09-24T15:47:51.817Z,101431.59
2022-09-24T15:52:59.718Z,101428.91
2022-09-24T15:58:02.091Z,101438.19
2022-09-24T16:03:03.853Z,101448.72
2022-09-24T16:08:05.485Z,101458.38
2022-09-24T16:13:08.161Z,101462.94
2022-09-24T16:18:13.539Z,101466.22
2022-09-24T16:23:16.676Z,101466.13
2022-09-24T16:28:18.215Z,101465.63
2022-09-24T16:33:19.955Z,101472.53
2022-09-24T16:38:23.059Z,101481.34
2022-09-24T16:43:24.951Z,101491.66
2022-09-24T16:48:26.876Z,101486.22
2022-09-24T16:53:28.435Z,101488.47
2022-09-24T16:58:32.180Z,101490.91
2022-09-24T17:03:34.482Z,101499.84
2022-09-24T17:08:54.989Z,101506.09
2022-09-24T17:13:57.280Z,101511.63
2022-09-24T17:18:58.943Z,101510.59
2022-09-24T17:24:00.519Z,101512.38
2022-09-24T17:29:02.107Z,101529.59
2022-09-24T17:34:07.026Z,101518.44
2022-09-24T17:39:08.840Z,101528.25
2022-09-24T17:44:12.604Z,101522.63
2022-09-24T17:49:15.553Z,101537.22
2022-09-24T17:54:21.214Z,101541.88
2022-09-24T17:59:26.722Z,101539.50
2022-09-24T18:04:31.261Z,101544.66
2022-09-24T18:09:32.974Z,101547.22
2022-09-24T18:14:35.008Z,101547.59
2022-09-24T18:19:36.587Z,101543.28
2022-09-24T18:24:38.157Z,101556.16
2022-09-24T18:29:40.376Z,101554.63
2022-09-24T18:34:41.946Z,101564.06
2022-09-24T18:39:44.086Z,101568.19
2022-09-24T18:44:47.010Z,101576.22
2022-09-24T18:49:49.314Z,101579.81
2022-09-24T18:54:50.821Z,101583.56
2022-09-24T18:59:52.343Z,101585.09
2022-09-24T19:04:53.831Z,101589.91
2022-09-24T19:09:55.655Z,101588.50
2022-09-24T19:14:58.631Z,101592.44
2022-09-24T19:20:00.148Z,101586.28
2022-09-24T19:25:01.651Z,101585.41
2022-09-24T19:30:03.225Z,101594.53
2022-09-24T19:35:05.033Z,101594.53
2022-09-24T19:40:07.440Z,101593.50
2022-09-24T19:45:10.256Z,101601.72
2022-09-24T19:50:17.208Z,101600.03
2022-09-24T19:55:19.161Z,101600.16
2022-09-24T20:00:23.579Z,101596.75
2022-09-24T20:05:25.058Z,101603.78
2022-09-24T20:10:26.773Z,101604.13
2022-09-24T20:15:29.724Z,101604.97
2022-09-24T20:20:31.380Z,101608.91
2022-09-24T20:25:51.714Z,101607.03
2022-09-24T20:30:53.916Z,101602.38
2022-09-24T20:36:02.166Z,101606.66
2022-09-24T20:41:08.419Z,101608.69
2022-09-24T20:46:14.136Z,101622.88
2022-09-24T20:51:18.356Z,101620.41
2022-09-24T20:56:20.591Z,101616.09
2022-09-24T21:01:22.474Z,101608.19
2022-09-24T21:06:24.882Z,101607.59
2022-09-24T21:11:26.676Z,101615.44
2022-09-24T21:16:34.028Z,101616.09
2022-09-24T21:21:39.028Z,101620.81
2022-09-24T21:26:41.582Z,101628.66
2022-09-24T21:31:45.889Z,101625.75
2022-09-24T21:36:47.516Z,101621.63
2022-09-24T21:41:50.255Z,101624.97
2022-09-24T21:46:53.114Z,101640.06
2022-09-24T21:51:55.618Z,101638.00
2022-09-24T21:56:57.072Z,101641.75
2022-09-24T22:01:58.943Z,101632.69
2022-09-24T22:07:01.122Z,101624.78
2022-09-24T22:12:04.727Z,101618.84
2022-09-24T22:17:06.924Z,101624.69
2022-09-24T22:22:08.432Z,101625.69
2022-09-24T22:27:10.006Z,101613.28
2022-09-24T22:32:11.503Z,101622.00
2022-09-24T22:37:13.054Z,101622.22
2022-09-24T22:42:14.557Z,101624.75
2022-09-24T22:47:16.026Z,101616.50
2022-09-24T22:52:17.487Z,101617.28
2022-09-24T22:57:19.658Z,101614.09
2022-09-24T23:02:22.070Z,101621.00
2022-09-24T23:07:23.618Z,101620.75
2022-09-24T23:12:25.119Z,101619.09
2022-09-24T23:17:27.148Z,101623.50
2022-09-24T23:22:28.998Z,101616.78
2022-09-24T23:27:32.171Z,101628.66
2022-09-24T23:32:33.650Z,101620.34
2022-09-24T23:37:36.106Z,101610.91
2022-09-24T23:42:37.633Z,101625.88
2022-09-24T23:47:39.116Z,101620.19
2022-09-24T23:52:40.580Z,101618.03
2022-09-24T23:57:42.037Z,101625.81
